Time;durP1;ratioP1;P1;durP2;ratioP2;P2;SDS_P1;SDS_P2;PMS_P1;PMS_P2;Temp;Humidity;BMP_temperature;BMP_pressure;BME280_temperature;BME280_humidity;BME280_pressure;Samples;Min_cycle;Max_cycle;Signal;HPM_P1;HPM_P2
2022/05/21 00:01:16;;;;;;;;;;;11.80;99.90;;;;;;5053977;28;19952;-48
2022/05/21 00:03:41;;;;;;;;;;;11.80;99.90;;;;;;5054770;28;19917;-47
2022/05/21 00:06:07;;;;;;;;;;;11.80;99.90;;;;;;5050549;28;20381;-48
2022/05/21 00:08:33;;;;;;;;;;;11.70;99.90;;;;;;5054917;28;19921;-46
2022/05/21 00:10:58;;;;;;;;;;;11.70;99.90;;;;;;5068371;28;19916;-46
2022/05/21 00:13:23;;;;;;;;;;;11.70;99.90;;;;;;5063720;28;19924;-47
2022/05/21 00:15:49;;;;;;;;;;;11.80;99.90;;;;;;5070550;28;19916;-46
2022/05/21 00:18:14;;;;;;;;;;;11.70;99.90;;;;;;5067133;28;19920;-46
2022/05/21 00:20:49;;;;;;;;;;;11.70;99.90;;;;;;5070020;28;19916;-47
2022/05/21 00:23:17;;;;;;;;;;;11.70;99.90;;;;;;5060912;28;19920;-48
2022/05/21 00:25:43;;;;;;;;;;;11.70;99.90;;;;;;5050054;28;19921;-52
2022/05/21 00:28:09;;;;;;;;;;;11.70;99.90;;;;;;5054862;28;20374;-46
2022/05/21 00:30:35;;;;;;;;;;;11.70;99.90;;;;;;5051921;28;19917;-47
2022/05/21 00:33:00;;;;;;;;;;;11.70;99.90;;;;;;5054232;28;20262;-48
2022/05/21 00:35:26;;;;;;;;;;;11.70;99.90;;;;;;5050614;28;19999;-46
2022/05/21 00:37:51;;;;;;;;;;;11.70;99.90;;;;;;5051766;28;19924;-46
2022/05/21 00:40:17;;;;;;;;;;;11.70;99.90;;;;;;5054615;28;20374;-46
2022/05/21 00:42:43;;;;;;;;;;;11.70;99.90;;;;;;5059174;28;19999;-48
2022/05/21 00:45:10;;;;;;;;;;;11.70;99.90;;;;;;5068475;28;19940;-48
2022/05/21 00:47:36;;;;;;;;;;;11.60;99.90;;;;;;5067566;28;20019;-46
2022/05/21 00:50:02;;;;;;;;;;;11.60;99.90;;;;;;5066793;28;20007;-47
2022/05/21 00:52:28;;;;;;;;;;;11.60;99.90;;;;;;5068025;28;19982;-47
2022/05/21 00:54:56;;;;;;;;;;;11.60;99.90;;;;;;5052019;28;19971;-46
2022/05/21 00:57:24;;;;;;;;;;;11.60;99.90;;;;;;5050264;28;19916;-47
2022/05/21 00:59:53;;;;;;;;;;;11.60;99.90;;;;;;5054195;28;19917;-47
2022/05/21 01:02:21;;;;;;;;;;;11.60;99.90;;;;;;5061694;28;20031;-46
2022/05/21 01:04:47;;;;;;;;;;;11.60;99.90;;;;;;5054582;28;19923;-46
2022/05/21 01:07:15;;;;;;;;;;;11.60;99.90;;;;;;5052293;28;20363;-47
2022/05/21 01:09:43;;;;;;;;;;;11.60;99.90;;;;;;5069141;28;19927;-46
2022/05/21 01:12:09;;;;;;;;;;;11.60;99.90;;;;;;5065943;28;19921;-46
2022/05/21 01:14:35;;;;;;;;;;;11.60;99.90;;;;;;5066571;28;19961;-51
2022/05/21 01:17:01;;;;;;;;;;;11.60;99.90;;;;;;5067455;28;19916;-47
2022/05/21 01:19:27;;;;;;;;;;;11.60;99.90;;;;;;5070497;28;20284;-48
2022/05/21 01:21:52;;;;;;;;;;;11.60;99.90;;;;;;5066571;28;20332;-46
2022/05/21 01:24:17;;;;;;;;;;;11.60;99.90;;;;;;5050196;28;19924;-49
2022/05/21 01:26:43;;;;;;;;;;;11.60;99.90;;;;;;5050338;28;19920;-47
2022/05/21 01:29:14;;;;;;;;;;;11.50;99.90;;;;;;5050223;28;20337;-46
2022/05/21 01:31:46;;;;;;;;;;;11.60;99.90;;;;;;5049703;28;20317;-47
2022/05/21 01:34:11;;;;;;;;;;;11.60;99.90;;;;;;5054518;28;20382;-47
2022/05/21 01:36:37;;;;;;;;;;;11.60;99.90;;;;;;5054071;28;19942;-47
2022/05/21 01:39:02;;;;;;;;;;;11.60;99.90;;;;;;5052847;28;20377;-47
2022/05/21 01:41:28;;;;;;;;;;;11.60;99.90;;;;;;5050648;28;19917;-46
2022/05/21 01:46:37;;;;;;;;;;;11.70;99.90;;;;;;5066052;28;19917;-46
2022/05/21 01:49:03;;;;;;;;;;;11.70;99.90;;;;;;5067191;28;20373;-46
2022/05/21 01:51:29;;;;;;;;;;;11.80;99.90;;;;;;5068067;28;19962;-46
2022/05/21 01:53:55;;;;;;;;;;;11.80;99.90;;;;;;5065012;28;19939;-46
2022/05/21 01:56:20;;;;;;;;;;;11.80;99.90;;;;;;5068387;28;20338;-49
2022/05/21 01:58:46;;;;;;;;;;;11.90;99.90;;;;;;5068320;28;19986;-46
2022/05/21 02:01:12;;;;;;;;;;;11.90;99.90;;;;;;5073461;28;20381;-46
2022/05/21 02:03:37;;;;;;;;;;;11.90;99.90;;;;;;5067119;28;19916;-47
2022/05/21 02:06:03;;;;;;;;;;;11.90;99.90;;;;;;5072783;28;19916;-48
2022/05/21 02:08:29;;;;;;;;;;;12.00;99.90;;;;;;5068888;28;19971;-48
2022/05/21 02:10:54;;;;;;;;;;;12.00;99.90;;;;;;5071406;28;19916;-46
2022/05/21 02:13:21;;;;;;;;;;;11.90;99.90;;;;;;5068534;28;20335;-48
2022/05/21 02:15:47;;;;;;;;;;;12.00;99.90;;;;;;5072170;28;19916;-46
2022/05/21 02:18:13;;;;;;;;;;;12.00;99.90;;;;;;5068043;28;19985;-47
2022/05/21 02:20:39;;;;;;;;;;;12.00;99.90;;;;;;5070937;28;20366;-46
2022/05/21 02:23:05;;;;;;;;;;;12.00;99.90;;;;;;5067915;28;19916;-47
2022/05/21 02:25:31;;;;;;;;;;;12.00;99.90;;;;;;5072227;28;19939;-46
2022/05/21 02:27:56;;;;;;;;;;;12.10;99.90;;;;;;5068608;28;19920;-46
2022/05/21 02:30:22;;;;;;;;;;;12.10;99.90;;;;;;5071582;28;19995;-48
2022/05/21 02:32:48;;;;;;;;;;;12.10;99.90;;;;;;5067818;28;19922;-46
2022/05/21 02:35:14;;;;;;;;;;;12.10;99.90;;;;;;5072172;28;20240;-46
2022/05/21 02:40:24;;;;;;;;;;;12.10;99.90;;;;;;5071650;28;19916;-49
2022/05/21 02:42:50;;;;;;;;;;;12.10;99.90;;;;;;5069829;28;20377;-48
2022/05/21 02:45:19;;;;;;;;;;;12.20;99.90;;;;;;5072243;28;20378;-46
2022/05/21 02:47:45;;;;;;;;;;;12.20;99.90;;;;;;5067738;28;19924;-48
2022/05/21 02:50:12;;;;;;;;;;;12.20;99.90;;;;;;5072768;28;19916;-47
2022/05/21 02:52:37;;;;;;;;;;;12.20;99.90;;;;;;5057399;28;19924;-47
2022/05/21 02:55:03;;;;;;;;;;;12.30;99.90;;;;;;5052149;28;19916;-47
2022/05/21 02:57:29;;;;;;;;;;;12.30;99.90;;;;;;5056406;28;19970;-46
2022/05/21 02:59:54;;;;;;;;;;;12.30;99.90;;;;;;5052582;28;19916;-46
2022/05/21 03:02:20;;;;;;;;;;;12.40;99.90;;;;;;5061520;28;20377;-49
2022/05/21 03:04:45;;;;;;;;;;;12.40;99.90;;;;;;5070380;28;20071;-46
2022/05/21 03:07:11;;;;;;;;;;;12.40;99.90;;;;;;5067036;28;19938;-47
2022/05/21 03:12:21;;;;;;;;;;;12.40;99.90;;;;;;5061643;28;20328;-48
2022/05/21 03:14:46;;;;;;;;;;;12.40;99.90;;;;;;5050233;28;19917;-47
2022/05/21 03:17:12;;;;;;;;;;;12.40;99.90;;;;;;5056191;28;20015;-46
2022/05/21 03:19:37;;;;;;;;;;;12.50;99.90;;;;;;5052272;28;19917;-48
2022/05/21 03:22:03;;;;;;;;;;;12.50;99.90;;;;;;5060381;28;20003;-47
2022/05/21 03:24:28;;;;;;;;;;;12.40;99.90;;;;;;5053135;28;19924;-51
2022/05/21 03:26:54;;;;;;;;;;;12.40;99.90;;;;;;5054924;28;19956;-47
2022/05/21 03:29:20;;;;;;;;;;;12.40;99.90;;;;;;5051637;28;20435;-47
2022/05/21 03:31:46;;;;;;;;;;;12.40;99.90;;;;;;5056518;28;19917;-48
2022/05/21 03:34:11;;;;;;;;;;;12.40;99.90;;;;;;5052150;28;19925;-48
2022/05/21 03:36:37;;;;;;;;;;;12.40;99.90;;;;;;5060421;28;20069;-46
2022/05/21 03:39:03;;;;;;;;;;;12.40;99.90;;;;;;5072462;28;20294;-46
2022/05/21 03:41:29;;;;;;;;;;;12.40;99.90;;;;;;5064266;28;19930;-46
2022/05/21 03:43:55;;;;;;;;;;;12.40;99.90;;;;;;5070567;28;19916;-47
2022/05/21 03:46:21;;;;;;;;;;;12.50;99.90;;;;;;5066845;28;20007;-46
2022/05/21 03:48:46;;;;;;;;;;;12.50;99.90;;;;;;5071907;28;19920;-47
2022/05/21 03:51:12;;;;;;;;;;;12.50;99.90;;;;;;5066204;28;20305;-50
2022/05/21 03:53:38;;;;;;;;;;;12.50;99.90;;;;;;5050195;28;19923;-46
2022/05/21 03:56:03;;;;;;;;;;;12.50;99.90;;;;;;5051846;28;19927;-48
2022/05/21 03:58:29;;;;;;;;;;;12.50;99.90;;;;;;5070607;28;20356;-47
2022/05/21 04:00:55;;;;;;;;;;;12.50;99.90;;;;;;5056141;28;20608;-47
2022/05/21 04:03:20;;;;;;;;;;;12.50;99.90;;;;;;5050624;28;19916;-49
2022/05/21 04:05:47;;;;;;;;;;;12.50;99.90;;;;;;5054267;28;19917;-46
2022/05/21 04:08:13;;;;;;;;;;;12.60;99.90;;;;;;5051258;28;19921;-47
2022/05/21 04:10:38;;;;;;;;;;;12.60;99.90;;;;;;5061552;28;19916;-46
2022/05/21 04:13:04;;;;;;;;;;;12.60;99.90;;;;;;5048370;28;19925;-47
2022/05/21 04:15:29;;;;;;;;;;;12.60;99.90;;;;;;5053861;28;20308;-49
2022/05/21 04:17:55;;;;;;;;;;;12.60;99.90;;;;;;5058840;28;19923;-48
2022/05/21 04:20:23;;;;;;;;;;;12.60;99.90;;;;;;5069783;28;20047;-46
2022/05/21 04:22:48;;;;;;;;;;;12.60;99.90;;;;;;5064877;28;19916;-46
2022/05/21 04:25:14;;;;;;;;;;;12.60;99.90;;;;;;5064652;28;20007;-46
2022/05/21 04:27:40;;;;;;;;;;;12.60;99.90;;;;;;5050803;28;19916;-47
2022/05/21 04:30:07;;;;;;;;;;;12.70;99.90;;;;;;5055079;28;20522;-47
2022/05/21 04:32:33;;;;;;;;;;;12.70;99.90;;;;;;5051019;28;20012;-46
2022/05/21 04:34:58;;;;;;;;;;;12.70;99.90;;;;;;5053984;28;20260;-47
2022/05/21 04:37:24;;;;;;;;;;;12.70;99.90;;;;;;5052190;28;19923;-47
2022/05/21 04:39:49;;;;;;;;;;;12.70;99.90;;;;;;5069675;28;19944;-49
2022/05/21 04:42:15;;;;;;;;;;;12.70;99.90;;;;;;5066763;28;19917;-48
2022/05/21 04:44:40;;;;;;;;;;;12.70;99.90;;;;;;5066384;28;19927;-47
2022/05/21 04:47:06;;;;;;;;;;;12.70;99.90;;;;;;5054098;28;19923;-47
2022/05/21 04:49:31;;;;;;;;;;;12.80;99.90;;;;;;5050316;28;20011;-46
2022/05/21 04:51:57;;;;;;;;;;;12.70;99.90;;;;;;5052405;28;19924;-47
2022/05/21 04:54:22;;;;;;;;;;;12.70;99.90;;;;;;5051423;28;20023;-47
2022/05/21 04:56:48;;;;;;;;;;;12.80;99.90;;;;;;5053674;28;19917;-50
2022/05/21 04:59:14;;;;;;;;;;;12.80;99.90;;;;;;5052015;28;20435;-46
2022/05/21 05:01:40;;;;;;;;;;;12.80;99.90;;;;;;5069570;28;20006;-46
2022/05/21 05:04:06;;;;;;;;;;;12.90;99.90;;;;;;5064932;28;19924;-48
2022/05/21 05:06:32;;;;;;;;;;;12.90;99.90;;;;;;5069656;28;20365;-48
2022/05/21 05:08:57;;;;;;;;;;;12.90;99.90;;;;;;5065320;28;20035;-46
2022/05/21 05:11:23;;;;;;;;;;;13.00;99.90;;;;;;5069589;28;20362;-47
2022/05/21 05:13:49;;;;;;;;;;;13.00;99.90;;;;;;5063907;28;19916;-46
2022/05/21 05:16:14;;;;;;;;;;;13.00;99.90;;;;;;5069475;28;19917;-47
2022/05/21 05:18:40;;;;;;;;;;;13.10;99.90;;;;;;5065780;28;19917;-47
2022/05/21 05:21:05;;;;;;;;;;;13.10;99.90;;;;;;5065264;28;19943;-52
2022/05/21 05:23:31;;;;;;;;;;;13.20;99.90;;;;;;5067170;28;20300;-48
2022/05/21 05:25:59;;;;;;;;;;;13.20;99.90;;;;;;5067283;28;19924;-47
2022/05/21 05:28:25;;;;;;;;;;;13.20;99.90;;;;;;5067199;28;19924;-46
2022/05/21 05:30:51;;;;;;;;;;;13.30;99.90;;;;;;5068053;28;20329;-47
2022/05/21 05:33:17;;;;;;;;;;;13.30;99.90;;;;;;5067674;28;19916;-47
2022/05/21 05:35:42;;;;;;;;;;;13.40;99.90;;;;;;5053308;28;20459;-52
2022/05/21 05:38:09;;;;;;;;;;;13.50;99.90;;;;;;5057660;28;19959;-46
2022/05/21 05:40:35;;;;;;;;;;;13.50;99.90;;;;;;5053204;28;19916;-47
2022/05/21 05:43:01;;;;;;;;;;;13.60;99.90;;;;;;5059785;28;19935;-46
2022/05/21 05:45:27;;;;;;;;;;;13.60;99.90;;;;;;5054407;28;20393;-48
2022/05/21 05:47:52;;;;;;;;;;;13.60;99.90;;;;;;5056214;28;19920;-46
2022/05/21 05:50:18;;;;;;;;;;;13.70;99.90;;;;;;5052986;28;19927;-49
2022/05/21 05:52:43;;;;;;;;;;;13.70;99.90;;;;;;5073247;28;20023;-46
2022/05/21 05:55:09;;;;;;;;;;;13.90;99.90;;;;;;5053136;28;20374;-47
2022/05/21 05:57:34;;;;;;;;;;;14.00;99.90;;;;;;5057456;28;20324;-48
2022/05/21 06:00:00;;;;;;;;;;;14.10;99.90;;;;;;5053701;28;19916;-49
2022/05/21 06:05:12;;;;;;;;;;;14.40;99.90;;;;;;5053629;28;20380;-46
2022/05/21 06:08:07;;;;;;;;;;;14.60;99.90;;;;;;5057207;28;19940;-49
2022/05/21 06:10:37;;;;;;;;;;;14.70;99.90;;;;;;5052221;28;19921;-50
2022/05/21 06:13:04;;;;;;;;;;;14.80;99.90;;;;;;5062099;28;20341;-47
2022/05/21 06:15:30;;;;;;;;;;;14.80;99.90;;;;;;5060091;28;20012;-49
2022/05/21 06:17:55;;;;;;;;;;;14.80;99.90;;;;;;5069416;28;19927;-48
2022/05/21 06:20:22;;;;;;;;;;;14.80;99.90;;;;;;5073450;28;20369;-47
2022/05/21 06:22:48;;;;;;;;;;;14.80;99.90;;;;;;5062330;28;20279;-47
2022/05/21 06:25:17;;;;;;;;;;;14.80;99.90;;;;;;5053722;28;19942;-46
2022/05/21 06:27:52;;;;;;;;;;;14.70;99.90;;;;;;5060534;28;19923;-47
2022/05/21 06:30:19;;;;;;;;;;;14.70;99.90;;;;;;5056618;28;19969;-47
2022/05/21 06:32:44;;;;;;;;;;;14.60;99.90;;;;;;5052396;28;19927;-46
2022/05/21 06:35:10;;;;;;;;;;;14.70;99.90;;;;;;5053647;28;19916;-46
2022/05/21 06:37:36;;;;;;;;;;;14.70;99.90;;;;;;5069959;28;20410;-46
2022/05/21 06:40:01;;;;;;;;;;;14.80;99.90;;;;;;5068355;28;19939;-48
2022/05/21 06:42:27;;;;;;;;;;;14.90;99.90;;;;;;5071750;28;20015;-48
2022/05/21 06:44:52;;;;;;;;;;;14.90;99.90;;;;;;5066988;28;19966;-47
2022/05/21 06:47:18;;;;;;;;;;;14.90;99.90;;;;;;5056759;28;19917;-47
2022/05/21 06:49:43;;;;;;;;;;;14.90;99.90;;;;;;5066472;28;20474;-47
2022/05/21 06:52:09;;;;;;;;;;;15.00;99.90;;;;;;5072327;28;20191;-47
2022/05/21 06:54:34;;;;;;;;;;;15.10;99.90;;;;;;5060681;28;19924;-51
2022/05/21 06:56:59;;;;;;;;;;;15.20;99.90;;;;;;5053616;28;19970;-48
2022/05/21 06:59:25;;;;;;;;;;;15.20;99.90;;;;;;5070553;28;20353;-49
2022/05/21 07:01:50;;;;;;;;;;;15.30;99.90;;;;;;5070503;28;20003;-47
2022/05/21 07:04:16;;;;;;;;;;;15.50;99.90;;;;;;5055966;28;20030;-47
2022/05/21 07:09:26;;;;;;;;;;;15.70;99.90;;;;;;5072014;28;19936;-50
2022/05/21 07:11:52;;;;;;;;;;;15.70;99.90;;;;;;5070623;28;19920;-48
2022/05/21 07:14:18;;;;;;;;;;;15.70;99.90;;;;;;5063684;28;20255;-47
2022/05/21 07:16:43;;;;;;;;;;;15.70;99.90;;;;;;5069887;28;19939;-47
2022/05/21 07:19:09;;;;;;;;;;;15.80;99.90;;;;;;5068498;28;19923;-47
2022/05/21 07:21:34;;;;;;;;;;;15.80;99.90;;;;;;5071805;28;19916;-49
2022/05/21 07:24:00;;;;;;;;;;;15.90;99.90;;;;;;5056331;28;20397;-46
2022/05/21 07:26:25;;;;;;;;;;;16.00;99.90;;;;;;5062348;28;19923;-47
2022/05/21 07:28:51;;;;;;;;;;;16.00;99.90;;;;;;5068014;28;19920;-47
2022/05/21 07:31:17;;;;;;;;;;;16.10;99.90;;;;;;5071780;28;19916;-51
2022/05/21 07:33:42;;;;;;;;;;;16.10;99.90;;;;;;5059801;28;19923;-47
2022/05/21 07:36:07;;;;;;;;;;;16.20;99.90;;;;;;5051458;28;19917;-47
2022/05/21 07:38:33;;;;;;;;;;;16.30;99.90;;;;;;5063805;28;20038;-47
2022/05/21 07:40:59;;;;;;;;;;;16.40;99.90;;;;;;5071581;28;19928;-48
2022/05/21 07:43:28;;;;;;;;;;;16.30;99.90;;;;;;5060306;28;19920;-48
2022/05/21 07:45:54;;;;;;;;;;;16.30;99.90;;;;;;5053946;28;19960;-49
2022/05/21 07:48:20;;;;;;;;;;;16.30;99.90;;;;;;5071232;28;20015;-50
2022/05/21 07:50:47;;;;;;;;;;;16.30;99.90;;;;;;5069860;28;19916;-50
2022/05/21 07:53:13;;;;;;;;;;;16.30;99.90;;;;;;5051222;28;19921;-47
2022/05/21 07:55:41;;;;;;;;;;;16.30;99.90;;;;;;5053771;28;19974;-47
2022/05/21 07:58:07;;;;;;;;;;;16.40;99.90;;;;;;5053614;28;19916;-47
2022/05/21 08:00:32;;;;;;;;;;;16.40;99.90;;;;;;5067001;28;20340;-53
2022/05/21 08:02:58;;;;;;;;;;;16.20;99.90;;;;;;5066802;28;19923;-49
2022/05/21 08:05:23;;;;;;;;;;;16.10;99.90;;;;;;5062498;28;19924;-47
2022/05/21 08:07:50;;;;;;;;;;;16.10;99.90;;;;;;5065193;28;20057;-47
2022/05/21 08:10:15;;;;;;;;;;;16.20;99.90;;;;;;5055808;28;19925;-50
2022/05/21 08:12:41;;;;;;;;;;;16.40;99.90;;;;;;5056648;28;19924;-47
2022/05/21 08:15:07;;;;;;;;;;;16.60;99.90;;;;;;5051831;28;20370;-47
2022/05/21 08:17:33;;;;;;;;;;;16.70;99.90;;;;;;5059377;28;19971;-50
2022/05/21 08:19:58;;;;;;;;;;;16.50;99.90;;;;;;5057218;28;19916;-48
2022/05/21 08:27:52;;;;;;;;;;;16.20;99.90;;;;;;5063529;28;19928;-47
2022/05/21 08:30:17;;;;;;;;;;;16.20;99.90;;;;;;5070058;28;20271;-50
2022/05/21 08:32:43;;;;;;;;;;;16.30;99.90;;;;;;5058231;28;19923;-47
2022/05/21 08:35:08;;;;;;;;;;;16.30;99.90;;;;;;5049606;28;19917;-47
2022/05/21 08:37:35;;;;;;;;;;;16.20;99.90;;;;;;5051157;28;20373;-48
2022/05/21 08:40:01;;;;;;;;;;;16.20;99.90;;;;;;5050701;28;20332;-47
2022/05/21 08:42:35;;;;;;;;;;;16.00;99.90;;;;;;5065835;28;19939;-47
2022/05/21 08:45:07;;;;;;;;;;;16.10;99.90;;;;;;5070025;28;19968;-47
2022/05/21 08:47:37;;;;;;;;;;;16.20;99.90;;;;;;5059583;28;20015;-47
2022/05/21 08:50:09;;;;;;;;;;;16.30;99.90;;;;;;5050411;28;19917;-48
2022/05/21 08:52:41;;;;;;;;;;;16.20;99.90;;;;;;5056023;28;20337;-47
2022/05/21 08:55:08;;;;;;;;;;;16.20;99.90;;;;;;5063531;28;20428;-48
2022/05/21 08:57:54;;;;;;;;;;;16.10;99.90;;;;;;5050377;28;20297;-46
2022/05/21 09:00:20;;;;;;;;;;;16.10;99.90;;;;;;5056219;28;20013;-47
2022/05/21 09:02:45;;;;;;;;;;;16.20;99.90;;;;;;5069090;28;19916;-48
2022/05/21 09:05:12;;;;;;;;;;;16.30;99.90;;;;;;5055097;28;19917;-47
2022/05/21 09:07:40;;;;;;;;;;;16.40;99.90;;;;;;5055560;28;20290;-47
2022/05/21 09:10:09;;;;;;;;;;;16.40;99.90;;;;;;5057409;28;20015;-46
2022/05/21 09:12:40;;;;;;;;;;;16.50;99.90;;;;;;5069485;28;19920;-45
2022/05/21 09:15:07;;;;;;;;;;;16.60;99.90;;;;;;5063330;28;20042;-46
2022/05/21 09:17:41;;;;;;;;;;;16.80;99.90;;;;;;5061732;28;20302;-46
2022/05/21 09:20:08;;;;;;;;;;;16.90;99.90;;;;;;5056303;28;19916;-45
2022/05/21 09:22:34;;;;;;;;;;;17.00;99.90;;;;;;5059368;28;19920;-48
2022/05/21 09:25:01;;;;;;;;;;;17.00;99.90;;;;;;5053787;28;20400;-44
2022/05/21 09:27:29;;;;;;;;;;;17.00;99.90;;;;;;5069482;28;19920;-46
2022/05/21 09:30:11;;;;;;;;;;;17.10;99.90;;;;;;5057928;28;19928;-47
2022/05/21 09:32:37;;;;;;;;;;;17.30;99.90;;;;;;5069688;28;19922;-47
2022/05/21 09:35:14;;;;;;;;;;;17.60;99.90;;;;;;5044661;28;20413;-47
2022/05/21 09:37:40;;;;;;;;;;;17.80;99.90;;;;;;5049738;28;19924;-45
2022/05/21 09:40:11;;;;;;;;;;;17.90;99.90;;;;;;5054809;28;19931;-45
2022/05/21 09:45:23;;;;;;;;;;;18.10;99.90;;;;;;5064631;28;20301;-46
2022/05/21 09:48:03;;;;;;;;;;;18.00;99.90;;;;;;5065655;28;19916;-47
2022/05/21 09:50:29;;;;;;;;;;;17.80;99.90;;;;;;5060279;28;19921;-49
2022/05/21 09:52:55;;;;;;;;;;;17.80;99.90;;;;;;5053036;28;19924;-49
2022/05/21 09:55:23;;;;;;;;;;;17.80;99.90;;;;;;5062204;28;19921;-48
2022/05/21 09:57:48;;;;;;;;;;;17.80;99.60;;;;;;5052179;28;19970;-47
2022/05/21 10:00:17;;;;;;;;;;;17.80;99.90;;;;;;5054968;28;19924;-47
2022/05/21 10:02:44;;;;;;;;;;;17.90;99.90;;;;;;5050417;28;19923;-49
2022/05/21 10:05:20;;;;;;;;;;;17.90;99.90;;;;;;5069089;28;19952;-47
2022/05/21 10:10:58;;;;;;;;;;;18.10;99.90;;;;;;5050224;28;19917;-48
2022/05/21 10:13:24;;;;;;;;;;;18.10;99.90;;;;;;5046968;28;20007;-48
2022/05/21 10:16:10;;;;;;;;;;;18.10;99.90;;;;;;5060984;28;19943;-49
2022/05/21 10:18:51;;;;;;;;;;;18.30;99.90;;;;;;5057286;28;19920;-50
2022/05/21 10:21:35;;;;;;;;;;;18.30;99.40;;;;;;5071076;28;19982;-48
2022/05/21 10:24:05;;;;;;;;;;;18.40;99.90;;;;;;5053014;28;19916;-47
2022/05/21 10:26:40;;;;;;;;;;;18.60;99.90;;;;;;5053988;28;19924;-47
2022/05/21 10:29:25;;;;;;;;;;;18.70;99.90;;;;;;5073028;28;20185;-50
2022/05/21 10:32:05;;;;;;;;;;;18.90;99.90;;;;;;5067856;28;20279;-48
2022/05/21 10:34:39;;;;;;;;;;;18.80;98.60;;;;;;5052915;28;20366;-48
2022/05/21 10:37:20;;;;;;;;;;;18.80;99.90;;;;;;5067824;28;19939;-47
2022/05/21 10:39:52;;;;;;;;;;;18.90;99.00;;;;;;5072985;28;20003;-49
2022/05/21 10:42:26;;;;;;;;;;;18.70;97.70;;;;;;5057652;28;20098;-47
2022/05/21 10:45:07;;;;;;;;;;;18.70;98.80;;;;;;5059173;28;19981;-50
2022/05/21 10:47:48;;;;;;;;;;;18.60;99.70;;;;;;5068950;28;19991;-50
2022/05/21 10:50:22;;;;;;;;;;;18.80;99.90;;;;;;5069816;28;19925;-47
2022/05/21 10:52:56;;;;;;;;;;;18.70;98.70;;;;;;5066058;28;19920;-48
2022/05/21 10:55:45;;;;;;;;;;;18.70;99.70;;;;;;5070203;28;20428;-47
2022/05/21 10:58:29;;;;;;;;;;;18.70;99.10;;;;;;5043053;28;19928;-49
2022/05/21 11:01:15;;;;;;;;;;;18.90;98.60;;;;;;5055537;28;19917;-49
2022/05/21 11:03:46;;;;;;;;;;;19.10;99.30;;;;;;5057571;28;20344;-47
2022/05/21 11:06:29;;;;;;;;;;;19.10;98.70;;;;;;5059086;28;19917;-48
2022/05/21 11:08:54;;;;;;;;;;;19.30;98.50;;;;;;5055357;28;19972;-48
2022/05/21 11:11:39;;;;;;;;;;;19.20;97.10;;;;;;5059472;28;20416;-49
2022/05/21 11:14:07;;;;;;;;;;;19.10;97.40;;;;;;5064131;28;19916;-48
2022/05/21 11:16:45;;;;;;;;;;;19.10;97.30;;;;;;5070109;28;19916;-48
2022/05/21 11:19:10;;;;;;;;;;;19.00;97.40;;;;;;5061529;28;20003;-49
2022/05/21 11:21:44;;;;;;;;;;;19.00;97.20;;;;;;5060445;28;20000;-49
2022/05/21 11:24:12;;;;;;;;;;;19.00;97.80;;;;;;5060448;28;20373;-48
2022/05/21 11:26:43;;;;;;;;;;;19.00;98.50;;;;;;5066019;28;19978;-48
2022/05/21 11:29:24;;;;;;;;;;;19.10;97.60;;;;;;5060951;28;20278;-51
2022/05/21 11:37:23;;;;;;;;;;;18.80;96.90;;;;;;5051974;28;19920;-48
2022/05/21 11:39:50;;;;;;;;;;;18.80;97.40;;;;;;5051561;28;19917;-48
2022/05/21 11:42:17;;;;;;;;;;;18.80;97.80;;;;;;5052430;28;19916;-48
2022/05/21 11:45:03;;;;;;;;;;;18.90;98.30;;;;;;5052904;28;19971;-48
2022/05/21 11:47:48;;;;;;;;;;;19.00;98.30;;;;;;5056558;28;19923;-47
2022/05/21 11:50:17;;;;;;;;;;;19.20;98.80;;;;;;5063524;28;20220;-50
2022/05/21 11:52:51;;;;;;;;;;;19.30;97.10;;;;;;5050814;28;19948;-48
2022/05/21 11:55:18;;;;;;;;;;;19.20;96.90;;;;;;5052740;28;20001;-50
2022/05/21 11:57:47;;;;;;;;;;;19.10;96.00;;;;;;5055234;28;19920;-47
2022/05/21 12:00:18;;;;;;;;;;;19.00;96.20;;;;;;5051619;28;20503;-47
2022/05/21 12:03:26;;;;;;;;;;;18.90;95.40;;;;;;5062070;28;19917;-48
2022/05/21 12:05:51;;;;;;;;;;;19.00;95.80;;;;;;5063938;28;19927;-48
2022/05/21 12:08:20;;;;;;;;;;;19.00;95.50;;;;;;5055173;28;19927;-52
2022/05/21 12:11:07;;;;;;;;;;;19.00;96.00;;;;;;5054700;28;19916;-48
2022/05/21 12:13:32;;;;;;;;;;;19.00;96.70;;;;;;5053652;28;19923;-48
2022/05/21 12:15:59;;;;;;;;;;;19.10;97.00;;;;;;5053151;28;19916;-48
2022/05/21 12:18:27;;;;;;;;;;;19.10;94.90;;;;;;5051345;28;20023;-48
2022/05/21 12:20:53;;;;;;;;;;;19.10;95.20;;;;;;5056546;28;20101;-48
2022/05/21 12:23:42;;;;;;;;;;;19.10;95.50;;;;;;5067393;28;19917;-48
2022/05/21 12:26:16;;;;;;;;;;;19.20;94.40;;;;;;5050068;28;19916;-50
2022/05/21 12:28:46;;;;;;;;;;;19.20;93.70;;;;;;5065701;28;20300;-50
2022/05/21 12:31:13;;;;;;;;;;;19.20;95.30;;;;;;5070489;28;19958;-48
2022/05/21 12:33:51;;;;;;;;;;;19.20;94.90;;;;;;5065226;28;19917;-47
2022/05/21 12:36:35;;;;;;;;;;;19.20;95.40;;;;;;5069656;28;19917;-48
2022/05/21 12:39:02;;;;;;;;;;;19.30;94.80;;;;;;5052166;28;20384;-48
2022/05/21 12:41:36;;;;;;;;;;;19.30;95.60;;;;;;5048311;28;20294;-48
2022/05/21 12:44:02;;;;;;;;;;;19.30;94.80;;;;;;5052067;28;19916;-50
2022/05/21 12:46:29;;;;;;;;;;;19.40;95.80;;;;;;5049593;28;19923;-48
2022/05/21 12:48:56;;;;;;;;;;;19.40;95.10;;;;;;5054854;28;19920;-50
2022/05/21 12:51:30;;;;;;;;;;;19.40;96.70;;;;;;5058867;28;19924;-48
2022/05/21 12:53:56;;;;;;;;;;;19.30;94.10;;;;;;5070493;28;19917;-48
2022/05/21 12:56:31;;;;;;;;;;;19.30;94.90;;;;;;5058511;28;19921;-48
2022/05/21 12:59:00;;;;;;;;;;;19.40;96.40;;;;;;5049390;28;20008;-49
2022/05/21 13:01:30;;;;;;;;;;;19.50;94.00;;;;;;5058958;28;19920;-48
2022/05/21 13:03:56;;;;;;;;;;;19.50;93.50;;;;;;5065478;28;20361;-48
2022/05/21 13:06:24;;;;;;;;;;;19.50;95.10;;;;;;5051015;28;19971;-51
2022/05/21 13:08:52;;;;;;;;;;;19.50;93.20;;;;;;5053488;28;20013;-48
2022/05/21 13:11:20;;;;;;;;;;;19.50;92.20;;;;;;5063028;28;20013;-48
2022/05/21 13:13:58;;;;;;;;;;;19.50;91.90;;;;;;5051819;28;19923;-48
2022/05/21 13:16:24;;;;;;;;;;;19.40;92.10;;;;;;5058291;28;19982;-49
2022/05/21 13:18:56;;;;;;;;;;;19.50;93.60;;;;;;5059040;28;20425;-47
2022/05/21 13:21:33;;;;;;;;;;;19.60;92.60;;;;;;5052446;28;19924;-47
2022/05/21 13:24:05;;;;;;;;;;;19.60;93.70;;;;;;5055200;28;19923;-51
2022/05/21 13:26:33;;;;;;;;;;;19.60;92.50;;;;;;5060121;28;19917;-48
2022/05/21 13:29:14;;;;;;;;;;;19.60;92.80;;;;;;5051038;28;19928;-48
2022/05/21 13:31:39;;;;;;;;;;;19.60;93.10;;;;;;5055276;28;20015;-49
2022/05/21 13:34:05;;;;;;;;;;;19.70;93.00;;;;;;5064837;28;19917;-48
2022/05/21 13:36:34;;;;;;;;;;;19.70;93.60;;;;;;5053095;28;20015;-48
2022/05/21 13:39:01;;;;;;;;;;;19.60;92.50;;;;;;5066299;28;19916;-49
2022/05/21 13:41:29;;;;;;;;;;;19.60;93.90;;;;;;5051558;28;19935;-47
2022/05/21 13:43:54;;;;;;;;;;;19.40;92.10;;;;;;5048773;28;19948;-48
2022/05/21 13:46:22;;;;;;;;;;;19.30;92.70;;;;;;5065197;28;20005;-51
2022/05/21 13:48:50;;;;;;;;;;;19.10;92.90;;;;;;5050085;28;20279;-47
2022/05/21 13:51:17;;;;;;;;;;;19.00;92.80;;;;;;5050474;28;20591;-48
2022/05/21 13:53:44;;;;;;;;;;;18.90;93.00;;;;;;5055991;28;19916;-48
2022/05/21 13:56:22;;;;;;;;;;;18.80;93.40;;;;;;5054575;28;19928;-48
2022/05/21 13:59:01;;;;;;;;;;;18.80;93.40;;;;;;5052830;28;20340;-48
2022/05/21 14:01:29;;;;;;;;;;;18.70;94.30;;;;;;5054065;28;19924;-50
2022/05/21 14:04:04;;;;;;;;;;;18.70;94.30;;;;;;5072727;28;19956;-49
2022/05/21 14:06:29;;;;;;;;;;;18.60;94.10;;;;;;5064795;28;19922;-48
2022/05/21 14:08:56;;;;;;;;;;;18.60;95.10;;;;;;5072437;28;20559;-47
2022/05/21 14:11:22;;;;;;;;;;;18.70;94.20;;;;;;5071381;28;19947;-47
2022/05/21 14:13:59;;;;;;;;;;;18.70;94.40;;;;;;5062852;28;19920;-50
2022/05/21 14:16:24;;;;;;;;;;;18.70;93.80;;;;;;5070504;28;19920;-47
2022/05/21 14:18:58;;;;;;;;;;;18.80;93.60;;;;;;5054485;28;19916;-50
2022/05/21 14:21:27;;;;;;;;;;;18.80;95.00;;;;;;5054161;28;20243;-49
2022/05/21 14:24:08;;;;;;;;;;;18.70;93.90;;;;;;5070731;28;19968;-50
2022/05/21 14:26:33;;;;;;;;;;;18.60;94.70;;;;;;5067416;28;20362;-48
2022/05/21 14:29:19;;;;;;;;;;;18.70;94.90;;;;;;5052898;28;19951;-50
2022/05/21 14:31:46;;;;;;;;;;;18.60;93.80;;;;;;5058679;28;19954;-50
2022/05/21 14:34:12;;;;;;;;;;;18.70;95.40;;;;;;5065621;28;19971;-48
2022/05/21 14:36:42;;;;;;;;;;;18.70;94.20;;;;;;5061233;28;19916;-48
2022/05/21 14:39:08;;;;;;;;;;;18.60;94.20;;;;;;5056138;28;19924;-50
2022/05/21 14:41:38;;;;;;;;;;;18.60;93.90;;;;;;5060052;28;19921;-48
2022/05/21 14:44:12;;;;;;;;;;;18.50;94.60;;;;;;5072265;28;19920;-50
2022/05/21 14:49:22;;;;;;;;;;;18.60;94.60;;;;;;5054122;28;19924;-48
2022/05/21 14:54:34;;;;;;;;;;;18.40;94.40;;;;;;5073221;28;19971;-51
2022/05/21 14:57:00;;;;;;;;;;;18.20;95.10;;;;;;5060454;28;20007;-50
2022/05/21 14:59:26;;;;;;;;;;;18.10;96.30;;;;;;5052355;28;20356;-47